sensor_id;sensor_type;location;lat;lon;timestamp;P1;durP1;ratioP1;P2;durP2;ratioP2
11990;SDS011;6055;52.522;13.446;2022-08-03T00:01:18;6.20;;;3.47;;
11990;SDS011;6055;52.522;13.446;2022-08-03T00:03:44;6.22;;;3.33;;
11990;SDS011;6055;52.522;13.446;2022-08-03T00:06:10;4.00;;;3.10;;
11990;SDS011;6055;52.522;13.446;2022-08-03T00:08:35;3.72;;;2.95;;
11990;SDS011;6055;52.522;13.446;2022-08-03T00:11:01;4.00;;;2.95;;
11990;SDS011;6055;52.522;13.446;2022-08-03T00:13:27;4.55;;;2.85;;
11990;SDS011;6055;52.522;13.446;2022-08-03T00:15:53;4.15;;;2.95;;
11990;SDS011;6055;52.522;13.446;2022-08-03T00:18:18;5.20;;;3.08;;
11990;SDS011;6055;52.522;13.446;2022-08-03T00:20:44;4.95;;;3.95;;
11990;SDS011;6055;52.522;13.446;2022-08-03T00:23:10;7.40;;;4.15;;
11990;SDS011;6055;52.522;13.446;2022-08-03T00:25:35;8.02;;;4.45;;
11990;SDS011;6055;52.522;13.446;2022-08-03T00:28:02;4.47;;;4.03;;
11990;SDS011;6055;52.522;13.446;2022-08-03T00:30:29;4.18;;;3.00;;
11990;SDS011;6055;52.522;13.446;2022-08-03T00:32:54;4.35;;;3.55;;
11990;SDS011;6055;52.522;13.446;2022-08-03T00:35:20;4.97;;;3.50;;
11990;SDS011;6055;52.522;13.446;2022-08-03T00:37:46;4.68;;;3.70;;
11990;SDS011;6055;52.522;13.446;2022-08-03T00:40:12;4.07;;;3.60;;
11990;SDS011;6055;52.522;13.446;2022-08-03T00:42:54;4.45;;;3.20;;
11990;SDS011;6055;52.522;13.446;2022-08-03T00:45:21;4.68;;;3.30;;
11990;SDS011;6055;52.522;13.446;2022-08-03T00:47:57;4.10;;;3.30;;
11990;SDS011;6055;52.522;13.446;2022-08-03T00:50:24;3.80;;;2.72;;
11990;SDS011;6055;52.522;13.446;2022-08-03T00:52:52;4.07;;;3.17;;
11990;SDS011;6055;52.522;13.446;2022-08-03T00:55:19;5.80;;;3.00;;
11990;SDS011;6055;52.522;13.446;2022-08-03T00:57:45;6.63;;;3.72;;
11990;SDS011;6055;52.522;13.446;2022-08-03T01:00:13;4.15;;;3.25;;
11990;SDS011;6055;52.522;13.446;2022-08-03T01:02:40;3.40;;;3.08;;
11990;SDS011;6055;52.522;13.446;2022-08-03T01:05:06;5.45;;;3.50;;
11990;SDS011;6055;52.522;13.446;2022-08-03T01:11:08;4.32;;;3.33;;
11990;SDS011;6055;52.522;13.446;2022-08-03T01:16:31;4.00;;;3.33;;
11990;SDS011;6055;52.522;13.446;2022-08-03T01:27:28;4.18;;;3.15;;
11990;SDS011;6055;52.522;13.446;2022-08-03T01:30:12;5.32;;;3.40;;
11990;SDS011;6055;52.522;13.446;2022-08-03T01:32:40;3.85;;;3.25;;
11990;SDS011;6055;52.522;13.446;2022-08-03T01:35:30;4.20;;;3.08;;
11990;SDS011;6055;52.522;13.446;2022-08-03T01:38:01;3.55;;;3.10;;
11990;SDS011;6055;52.522;13.446;2022-08-03T01:40:29;3.50;;;3.17;;
11990;SDS011;6055;52.522;13.446;2022-08-03T01:42:58;4.78;;;2.92;;
11990;SDS011;6055;52.522;13.446;2022-08-03T01:45:25;3.70;;;3.00;;
11990;SDS011;6055;52.522;13.446;2022-08-03T01:47:52;4.10;;;3.20;;
11990;SDS011;6055;52.522;13.446;2022-08-03T01:50:20;3.20;;;2.88;;
11990;SDS011;6055;52.522;13.446;2022-08-03T01:52:48;3.25;;;2.92;;
11990;SDS011;6055;52.522;13.446;2022-08-03T01:55:16;5.00;;;3.35;;
11990;SDS011;6055;52.522;13.446;2022-08-03T01:57:43;4.60;;;3.03;;
11990;SDS011;6055;52.522;13.446;2022-08-03T02:00:11;4.57;;;3.47;;
11990;SDS011;6055;52.522;13.446;2022-08-03T02:02:38;3.72;;;3.28;;
11990;SDS011;6055;52.522;13.446;2022-08-03T02:05:06;4.82;;;3.30;;
11990;SDS011;6055;52.522;13.446;2022-08-03T02:07:35;3.22;;;2.90;;
11990;SDS011;6055;52.522;13.446;2022-08-03T02:10:04;5.32;;;3.22;;
11990;SDS011;6055;52.522;13.446;2022-08-03T02:12:31;5.22;;;3.30;;
11990;SDS011;6055;52.522;13.446;2022-08-03T02:14:59;5.35;;;3.30;;
11990;SDS011;6055;52.522;13.446;2022-08-03T02:17:26;4.28;;;3.20;;
11990;SDS011;6055;52.522;13.446;2022-08-03T02:19:53;6.10;;;3.22;;
11990;SDS011;6055;52.522;13.446;2022-08-03T02:22:22;6.32;;;3.47;;
11990;SDS011;6055;52.522;13.446;2022-08-03T02:24:49;5.45;;;3.63;;
11990;SDS011;6055;52.522;13.446;2022-08-03T02:27:17;4.90;;;3.05;;
11990;SDS011;6055;52.522;13.446;2022-08-03T02:29:47;3.97;;;3.22;;
11990;SDS011;6055;52.522;13.446;2022-08-03T02:32:16;3.67;;;3.38;;
11990;SDS011;6055;52.522;13.446;2022-08-03T02:34:46;3.72;;;3.40;;
11990;SDS011;6055;52.522;13.446;2022-08-03T02:37:14;5.07;;;3.50;;
11990;SDS011;6055;52.522;13.446;2022-08-03T02:39:43;5.82;;;3.88;;
11990;SDS011;6055;52.522;13.446;2022-08-03T02:42:10;4.18;;;3.63;;
11990;SDS011;6055;52.522;13.446;2022-08-03T02:44:38;5.05;;;3.45;;
11990;SDS011;6055;52.522;13.446;2022-08-03T02:47:08;4.28;;;3.17;;
11990;SDS011;6055;52.522;13.446;2022-08-03T02:49:35;5.20;;;3.47;;
11990;SDS011;6055;52.522;13.446;2022-08-03T02:52:02;4.40;;;3.20;;
11990;SDS011;6055;52.522;13.446;2022-08-03T02:54:33;4.10;;;3.45;;
11990;SDS011;6055;52.522;13.446;2022-08-03T02:56:59;4.00;;;3.30;;
11990;SDS011;6055;52.522;13.446;2022-08-03T02:59:27;4.53;;;3.55;;
11990;SDS011;6055;52.522;13.446;2022-08-03T03:01:55;9.23;;;3.30;;
11990;SDS011;6055;52.522;13.446;2022-08-03T03:04:22;4.75;;;3.10;;
11990;SDS011;6055;52.522;13.446;2022-08-03T03:06:49;4.75;;;3.30;;
11990;SDS011;6055;52.522;13.446;2022-08-03T03:09:16;3.92;;;3.30;;
11990;SDS011;6055;52.522;13.446;2022-08-03T03:11:42;4.85;;;3.70;;
11990;SDS011;6055;52.522;13.446;2022-08-03T03:14:08;3.70;;;3.33;;
11990;SDS011;6055;52.522;13.446;2022-08-03T03:16:35;5.07;;;3.30;;
11990;SDS011;6055;52.522;13.446;2022-08-03T03:19:01;4.28;;;3.30;;
11990;SDS011;6055;52.522;13.446;2022-08-03T03:21:27;4.57;;;3.38;;
11990;SDS011;6055;52.522;13.446;2022-08-03T03:23:54;3.65;;;3.35;;
11990;SDS011;6055;52.522;13.446;2022-08-03T03:26:20;4.65;;;3.67;;
11990;SDS011;6055;52.522;13.446;2022-08-03T03:28:46;3.38;;;3.08;;
11990;SDS011;6055;52.522;13.446;2022-08-03T03:31:12;5.22;;;3.53;;
11990;SDS011;6055;52.522;13.446;2022-08-03T03:33:38;3.53;;;3.17;;
11990;SDS011;6055;52.522;13.446;2022-08-03T03:36:04;4.30;;;3.55;;
11990;SDS011;6055;52.522;13.446;2022-08-03T03:38:30;4.30;;;3.30;;
11990;SDS011;6055;52.522;13.446;2022-08-03T03:40:56;3.50;;;3.20;;
11990;SDS011;6055;52.522;13.446;2022-08-03T03:43:23;3.45;;;3.15;;
11990;SDS011;6055;52.522;13.446;2022-08-03T03:45:48;3.97;;;3.58;;
11990;SDS011;6055;52.522;13.446;2022-08-03T03:48:15;5.05;;;3.13;;
11990;SDS011;6055;52.522;13.446;2022-08-03T03:50:42;4.80;;;3.72;;
11990;SDS011;6055;52.522;13.446;2022-08-03T03:53:09;4.85;;;3.67;;
11990;SDS011;6055;52.522;13.446;2022-08-03T03:55:35;4.90;;;3.70;;
11990;SDS011;6055;52.522;13.446;2022-08-03T03:58:02;6.30;;;3.72;;
11990;SDS011;6055;52.522;13.446;2022-08-03T04:00:28;7.05;;;3.75;;
11990;SDS011;6055;52.522;13.446;2022-08-03T04:02:54;4.78;;;3.60;;
11990;SDS011;6055;52.522;13.446;2022-08-03T04:05:20;5.70;;;3.58;;
11990;SDS011;6055;52.522;13.446;2022-08-03T04:08:08;4.40;;;3.80;;
11990;SDS011;6055;52.522;13.446;2022-08-03T04:11:03;4.30;;;3.50;;
11990;SDS011;6055;52.522;13.446;2022-08-03T04:13:45;3.40;;;3.10;;
11990;SDS011;6055;52.522;13.446;2022-08-03T04:16:13;3.58;;;3.28;;
11990;SDS011;6055;52.522;13.446;2022-08-03T04:18:40;4.05;;;3.55;;
11990;SDS011;6055;52.522;13.446;2022-08-03T04:21:09;5.53;;;4.07;;
11990;SDS011;6055;52.522;13.446;2022-08-03T04:23:38;4.32;;;3.72;;
11990;SDS011;6055;52.522;13.446;2022-08-03T04:26:07;3.92;;;3.40;;
11990;SDS011;6055;52.522;13.446;2022-08-03T04:28:35;7.68;;;4.10;;
11990;SDS011;6055;52.522;13.446;2022-08-03T04:31:03;4.45;;;3.50;;
11990;SDS011;6055;52.522;13.446;2022-08-03T04:33:31;4.63;;;4.05;;
11990;SDS011;6055;52.522;13.446;2022-08-03T04:35:59;4.80;;;3.42;;
11990;SDS011;6055;52.522;13.446;2022-08-03T04:38:28;4.18;;;3.50;;
11990;SDS011;6055;52.522;13.446;2022-08-03T04:40:55;3.80;;;3.33;;
11990;SDS011;6055;52.522;13.446;2022-08-03T04:43:21;4.57;;;3.45;;
11990;SDS011;6055;52.522;13.446;2022-08-03T04:45:47;4.53;;;3.30;;
11990;SDS011;6055;52.522;13.446;2022-08-03T04:48:14;3.80;;;3.10;;
11990;SDS011;6055;52.522;13.446;2022-08-03T04:50:40;4.25;;;3.45;;
11990;SDS011;6055;52.522;13.446;2022-08-03T04:53:06;3.67;;;3.20;;
11990;SDS011;6055;52.522;13.446;2022-08-03T04:55:32;4.93;;;3.58;;
11990;SDS011;6055;52.522;13.446;2022-08-03T04:57:59;4.00;;;3.40;;
11990;SDS011;6055;52.522;13.446;2022-08-03T05:00:26;5.35;;;3.45;;
11990;SDS011;6055;52.522;13.446;2022-08-03T05:02:52;4.47;;;3.40;;
11990;SDS011;6055;52.522;13.446;2022-08-03T05:05:18;5.72;;;3.47;;
11990;SDS011;6055;52.522;13.446;2022-08-03T05:07:44;4.82;;;3.88;;
11990;SDS011;6055;52.522;13.446;2022-08-03T05:10:10;5.03;;;3.58;;
11990;SDS011;6055;52.522;13.446;2022-08-03T05:12:36;5.43;;;3.47;;
11990;SDS011;6055;52.522;13.446;2022-08-03T05:15:02;4.45;;;3.60;;
11990;SDS011;6055;52.522;13.446;2022-08-03T05:17:28;4.47;;;3.85;;
11990;SDS011;6055;52.522;13.446;2022-08-03T05:19:54;4.93;;;3.50;;
11990;SDS011;6055;52.522;13.446;2022-08-03T05:22:20;3.88;;;3.28;;
11990;SDS011;6055;52.522;13.446;2022-08-03T05:24:46;4.45;;;3.38;;
11990;SDS011;6055;52.522;13.446;2022-08-03T05:27:12;5.85;;;3.53;;
11990;SDS011;6055;52.522;13.446;2022-08-03T05:29:43;4.70;;;3.10;;
11990;SDS011;6055;52.522;13.446;2022-08-03T05:32:12;5.45;;;2.88;;
11990;SDS011;6055;52.522;13.446;2022-08-03T05:34:38;3.50;;;3.20;;
11990;SDS011;6055;52.522;13.446;2022-08-03T05:37:04;5.30;;;3.30;;
11990;SDS011;6055;52.522;13.446;2022-08-03T05:39:31;6.65;;;3.40;;
11990;SDS011;6055;52.522;13.446;2022-08-03T05:41:57;4.07;;;3.35;;
11990;SDS011;6055;52.522;13.446;2022-08-03T05:44:22;4.60;;;3.03;;
11990;SDS011;6055;52.522;13.446;2022-08-03T05:46:49;3.28;;;2.92;;
11990;SDS011;6055;52.522;13.446;2022-08-03T05:49:15;3.85;;;3.30;;
11990;SDS011;6055;52.522;13.446;2022-08-03T05:51:40;3.58;;;2.80;;
11990;SDS011;6055;52.522;13.446;2022-08-03T05:54:06;4.75;;;3.50;;
11990;SDS011;6055;52.522;13.446;2022-08-03T05:56:31;4.18;;;3.20;;
11990;SDS011;6055;52.522;13.446;2022-08-03T05:58:57;3.40;;;2.92;;
11990;SDS011;6055;52.522;13.446;2022-08-03T06:01:22;4.30;;;3.55;;
11990;SDS011;6055;52.522;13.446;2022-08-03T06:03:48;4.90;;;3.40;;
11990;SDS011;6055;52.522;13.446;2022-08-03T06:06:15;3.60;;;3.30;;
11990;SDS011;6055;52.522;13.446;2022-08-03T06:08:41;6.43;;;3.72;;
11990;SDS011;6055;52.522;13.446;2022-08-03T06:11:08;4.55;;;2.95;;
11990;SDS011;6055;52.522;13.446;2022-08-03T06:13:33;5.00;;;3.65;;
11990;SDS011;6055;52.522;13.446;2022-08-03T06:15:59;6.80;;;3.25;;
11990;SDS011;6055;52.522;13.446;2022-08-03T06:18:25;6.03;;;3.75;;
11990;SDS011;6055;52.522;13.446;2022-08-03T06:20:51;5.93;;;3.60;;
11990;SDS011;6055;52.522;13.446;2022-08-03T06:23:17;6.07;;;3.50;;
11990;SDS011;6055;52.522;13.446;2022-08-03T06:25:42;4.18;;;2.80;;
11990;SDS011;6055;52.522;13.446;2022-08-03T06:28:08;3.20;;;2.70;;
11990;SDS011;6055;52.522;13.446;2022-08-03T06:30:34;4.18;;;2.60;;
11990;SDS011;6055;52.522;13.446;2022-08-03T06:33:00;2.65;;;2.45;;
11990;SDS011;6055;52.522;13.446;2022-08-03T06:35:25;3.75;;;3.10;;
11990;SDS011;6055;52.522;13.446;2022-08-03T06:37:52;5.95;;;2.90;;
11990;SDS011;6055;52.522;13.446;2022-08-03T06:40:19;2.95;;;2.38;;
11990;SDS011;6055;52.522;13.446;2022-08-03T06:42:52;3.45;;;2.78;;
11990;SDS011;6055;52.522;13.446;2022-08-03T06:45:18;3.53;;;2.72;;
11990;SDS011;6055;52.522;13.446;2022-08-03T06:47:44;4.85;;;3.08;;
11990;SDS011;6055;52.522;13.446;2022-08-03T06:50:09;3.42;;;2.65;;
11990;SDS011;6055;52.522;13.446;2022-08-03T06:52:35;2.75;;;2.45;;
11990;SDS011;6055;52.522;13.446;2022-08-03T06:55:00;6.85;;;2.70;;
11990;SDS011;6055;52.522;13.446;2022-08-03T06:57:26;2.35;;;2.08;;
11990;SDS011;6055;52.522;13.446;2022-08-03T06:59:51;3.00;;;2.65;;
11990;SDS011;6055;52.522;13.446;2022-08-03T07:02:17;4.55;;;2.70;;
11990;SDS011;6055;52.522;13.446;2022-08-03T07:04:43;3.33;;;2.45;;
11990;SDS011;6055;52.522;13.446;2022-08-03T07:07:08;3.30;;;2.60;;
11990;SDS011;6055;52.522;13.446;2022-08-03T07:09:34;2.70;;;2.50;;
11990;SDS011;6055;52.522;13.446;2022-08-03T07:11:59;5.55;;;2.30;;
11990;SDS011;6055;52.522;13.446;2022-08-03T07:14:26;3.22;;;2.33;;
11990;SDS011;6055;52.522;13.446;2022-08-03T07:16:51;2.78;;;2.28;;
11990;SDS011;6055;52.522;13.446;2022-08-03T07:19:17;3.53;;;2.30;;
11990;SDS011;6055;52.522;13.446;2022-08-03T07:21:42;3.90;;;2.78;;
11990;SDS011;6055;52.522;13.446;2022-08-03T07:24:09;2.38;;;2.17;;
11990;SDS011;6055;52.522;13.446;2022-08-03T07:26:34;5.22;;;2.28;;
11990;SDS011;6055;52.522;13.446;2022-08-03T07:29:00;3.60;;;2.08;;
11990;SDS011;6055;52.522;13.446;2022-08-03T07:31:25;4.25;;;2.20;;
11990;SDS011;6055;52.522;13.446;2022-08-03T07:33:51;2.13;;;1.80;;
11990;SDS011;6055;52.522;13.446;2022-08-03T07:36:17;2.00;;;1.80;;
11990;SDS011;6055;52.522;13.446;2022-08-03T07:38:42;2.15;;;2.00;;
11990;SDS011;6055;52.522;13.446;2022-08-03T07:41:08;2.30;;;1.52;;
11990;SDS011;6055;52.522;13.446;2022-08-03T07:43:33;1.92;;;1.65;;
11990;SDS011;6055;52.522;13.446;2022-08-03T07:45:59;2.33;;;1.92;;
11990;SDS011;6055;52.522;13.446;2022-08-03T07:48:24;2.45;;;1.92;;
11990;SDS011;6055;52.522;13.446;2022-08-03T07:50:50;2.38;;;2.03;;
11990;SDS011;6055;52.522;13.446;2022-08-03T07:53:16;3.05;;;2.75;;
11990;SDS011;6055;52.522;13.446;2022-08-03T07:55:42;2.63;;;2.00;;
11990;SDS011;6055;52.522;13.446;2022-08-03T07:58:09;7.65;;;2.00;;
11990;SDS011;6055;52.522;13.446;2022-08-03T08:00:46;1.80;;;1.70;;
11990;SDS011;6055;52.522;13.446;2022-08-03T08:03:12;2.25;;;2.00;;
11990;SDS011;6055;52.522;13.446;2022-08-03T08:05:38;2.85;;;2.13;;
11990;SDS011;6055;52.522;13.446;2022-08-03T08:08:04;3.28;;;2.25;;
11990;SDS011;6055;52.522;13.446;2022-08-03T08:10:29;1.77;;;1.60;;
11990;SDS011;6055;52.522;13.446;2022-08-03T08:12:56;4.00;;;1.83;;
11990;SDS011;6055;52.522;13.446;2022-08-03T08:15:22;2.38;;;1.60;;
11990;SDS011;6055;52.522;13.446;2022-08-03T08:17:48;2.70;;;1.90;;
11990;SDS011;6055;52.522;13.446;2022-08-03T08:20:17;1.85;;;1.65;;
11990;SDS011;6055;52.522;13.446;2022-08-03T08:22:44;2.47;;;1.92;;
11990;SDS011;6055;52.522;13.446;2022-08-03T08:25:10;1.90;;;1.70;;
11990;SDS011;6055;52.522;13.446;2022-08-03T08:27:43;3.08;;;1.80;;
11990;SDS011;6055;52.522;13.446;2022-08-03T08:30:10;1.85;;;1.70;;
11990;SDS011;6055;52.522;13.446;2022-08-03T08:32:37;6.18;;;2.20;;
11990;SDS011;6055;52.522;13.446;2022-08-03T08:35:06;1.75;;;1.52;;
11990;SDS011;6055;52.522;13.446;2022-08-03T08:37:33;2.33;;;1.80;;
11990;SDS011;6055;52.522;13.446;2022-08-03T08:39:59;3.13;;;1.70;;
11990;SDS011;6055;52.522;13.446;2022-08-03T08:42:25;3.13;;;2.00;;
11990;SDS011;6055;52.522;13.446;2022-08-03T08:44:51;1.95;;;1.80;;
11990;SDS011;6055;52.522;13.446;2022-08-03T08:47:17;1.90;;;1.80;;
11990;SDS011;6055;52.522;13.446;2022-08-03T08:49:47;2.00;;;1.80;;
11990;SDS011;6055;52.522;13.446;2022-08-03T08:52:18;2.13;;;1.85;;
11990;SDS011;6055;52.522;13.446;2022-08-03T08:54:48;1.63;;;1.52;;
11990;SDS011;6055;52.522;13.446;2022-08-03T08:57:15;2.60;;;1.60;;
11990;SDS011;6055;52.522;13.446;2022-08-03T08:59:42;1.85;;;1.75;;
11990;SDS011;6055;52.522;13.446;2022-08-03T09:02:08;4.00;;;1.90;;
11990;SDS011;6055;52.522;13.446;2022-08-03T09:04:35;2.85;;;1.60;;
11990;SDS011;6055;52.522;13.446;2022-08-03T09:07:03;2.58;;;1.60;;
11990;SDS011;6055;52.522;13.446;2022-08-03T09:09:29;2.45;;;1.63;;
11990;SDS011;6055;52.522;13.446;2022-08-03T09:11:55;3.70;;;1.70;;
11990;SDS011;6055;52.522;13.446;2022-08-03T09:14:20;1.88;;;1.67;;
11990;SDS011;6055;52.522;13.446;2022-08-03T09:16:56;2.55;;;1.70;;
11990;SDS011;6055;52.522;13.446;2022-08-03T09:19:29;1.92;;;1.80;;
11990;SDS011;6055;52.522;13.446;2022-08-03T09:22:06;2.53;;;1.88;;
11990;SDS011;6055;52.522;13.446;2022-08-03T09:24:36;1.80;;;1.63;;
11990;SDS011;6055;52.522;13.446;2022-08-03T09:27:04;1.70;;;1.60;;
11990;SDS011;6055;52.522;13.446;2022-08-03T09:29:31;2.17;;;1.75;;
11990;SDS011;6055;52.522;13.446;2022-08-03T09:31:59;2.00;;;1.70;;
11990;SDS011;6055;52.522;13.446;2022-08-03T09:34:26;2.20;;;1.70;;
11990;SDS011;6055;52.522;13.446;2022-08-03T09:36:52;1.58;;;1.30;;
11990;SDS011;6055;52.522;13.446;2022-08-03T09:39:19;2.78;;;1.73;;
11990;SDS011;6055;52.522;13.446;2022-08-03T09:41:47;1.80;;;1.70;;
11990;SDS011;6055;52.522;13.446;2022-08-03T09:44:35;2.17;;;1.58;;
11990;SDS011;6055;52.522;13.446;2022-08-03T09:47:02;1.98;;;1.88;;
11990;SDS011;6055;52.522;13.446;2022-08-03T09:49:28;2.05;;;1.88;;
11990;SDS011;6055;52.522;13.446;2022-08-03T09:51:54;1.80;;;1.70;;
11990;SDS011;6055;52.522;13.446;2022-08-03T09:54:26;1.90;;;1.45;;
11990;SDS011;6055;52.522;13.446;2022-08-03T09:56:52;3.53;;;1.70;;
11990;SDS011;6055;52.522;13.446;2022-08-03T09:59:25;1.80;;;1.40;;
11990;SDS011;6055;52.522;13.446;2022-08-03T10:01:55;1.77;;;1.52;;
11990;SDS011;6055;52.522;13.446;2022-08-03T10:04:21;1.80;;;1.60;;
11990;SDS011;6055;52.522;13.446;2022-08-03T10:07:21;2.00;;;1.40;;
11990;SDS011;6055;52.522;13.446;2022-08-03T10:09:39;1.50;;;1.38;;
11990;SDS011;6055;52.522;13.446;2022-08-03T10:12:20;2.00;;;1.40;;
11990;SDS011;6055;52.522;13.446;2022-08-03T10:14:46;2.70;;;1.70;;
11990;SDS011;6055;52.522;13.446;2022-08-03T10:17:12;1.60;;;1.48;;
11990;SDS011;6055;52.522;13.446;2022-08-03T10:19:38;2.75;;;1.60;;
11990;SDS011;6055;52.522;13.446;2022-08-03T10:22:11;3.88;;;1.63;;
11990;SDS011;6055;52.522;13.446;2022-08-03T10:24:40;1.95;;;1.40;;
11990;SDS011;6055;52.522;13.446;2022-08-03T10:27:13;4.82;;;1.75;;
11990;SDS011;6055;52.522;13.446;2022-08-03T10:29:41;1.55;;;1.40;;
11990;SDS011;6055;52.522;13.446;2022-08-03T10:32:17;1.80;;;1.65;;
11990;SDS011;6055;52.522;13.446;2022-08-03T10:34:45;2.40;;;1.38;;
11990;SDS011;6055;52.522;13.446;2022-08-03T10:37:15;1.88;;;1.60;;
11990;SDS011;6055;52.522;13.446;2022-08-03T10:39:42;1.42;;;1.33;;
11990;SDS011;6055;52.522;13.446;2022-08-03T10:42:17;2.42;;;1.30;;
11990;SDS011;6055;52.522;13.446;2022-08-03T10:44:52;2.35;;;1.58;;
11990;SDS011;6055;52.522;13.446;2022-08-03T10:47:24;1.60;;;1.50;;
11990;SDS011;6055;52.522;13.446;2022-08-03T10:49:50;1.60;;;1.50;;
11990;SDS011;6055;52.522;13.446;2022-08-03T10:52:16;1.40;;;1.30;;
11990;SDS011;6055;52.522;13.446;2022-08-03T10:54:42;1.40;;;1.30;;
11990;SDS011;6055;52.522;13.446;2022-08-03T11:00:09;1.50;;;1.40;;
11990;SDS011;6055;52.522;13.446;2022-08-03T11:05:31;1.60;;;1.50;;
11990;SDS011;6055;52.522;13.446;2022-08-03T11:10:53;4.90;;;1.80;;
11990;SDS011;6055;52.522;13.446;2022-08-03T11:13:27;2.20;;;2.00;;
11990;SDS011;6055;52.522;13.446;2022-08-03T11:15:58;1.70;;;1.60;;
11990;SDS011;6055;52.522;13.446;2022-08-03T11:18:25;1.75;;;1.65;;
11990;SDS011;6055;52.522;13.446;2022-08-03T11:20:53;1.60;;;1.50;;
11990;SDS011;6055;52.522;13.446;2022-08-03T11:23:38;2.17;;;1.90;;
11990;SDS011;6055;52.522;13.446;2022-08-03T11:26:15;1.98;;;1.50;;
11990;SDS011;6055;52.522;13.446;2022-08-03T11:28:43;3.05;;;1.60;;
11990;SDS011;6055;52.522;13.446;2022-08-03T11:39:42;2.95;;;1.75;;
11990;SDS011;6055;52.522;13.446;2022-08-03T11:44:48;3.70;;;1.88;;
11990;SDS011;6055;52.522;13.446;2022-08-03T11:47:14;2.92;;;1.60;;
11990;SDS011;6055;52.522;13.446;2022-08-03T11:49:48;1.98;;;1.50;;
11990;SDS011;6055;52.522;13.446;2022-08-03T11:52:15;1.83;;;1.70;;
11990;SDS011;6055;52.522;13.446;2022-08-03T11:54:42;1.58;;;1.48;;
11990;SDS011;6055;52.522;13.446;2022-08-03T11:57:08;2.10;;;1.70;;
11990;SDS011;6055;52.522;13.446;2022-08-03T11:59:34;2.70;;;1.60;;
11990;SDS011;6055;52.522;13.446;2022-08-03T12:04:50;2.58;;;1.50;;
11990;SDS011;6055;52.522;13.446;2022-08-03T12:07:23;1.95;;;1.70;;
11990;SDS011;6055;52.522;13.446;2022-08-03T12:10:07;2.67;;;1.60;;
11990;SDS011;6055;52.522;13.446;2022-08-03T12:12:37;5.25;;;1.83;;
11990;SDS011;6055;52.522;13.446;2022-08-03T12:15:05;2.28;;;1.50;;
11990;SDS011;6055;52.522;13.446;2022-08-03T12:17:34;2.15;;;1.70;;
11990;SDS011;6055;52.522;13.446;2022-08-03T12:20:01;2.05;;;1.55;;
11990;SDS011;6055;52.522;13.446;2022-08-03T12:22:35;1.77;;;1.63;;
11990;SDS011;6055;52.522;13.446;2022-08-03T12:25:05;2.42;;;1.70;;
11990;SDS011;6055;52.522;13.446;2022-08-03T12:27:32;3.05;;;1.83;;
11990;SDS011;6055;52.522;13.446;2022-08-03T12:29:58;2.05;;;1.55;;
11990;SDS011;6055;52.522;13.446;2022-08-03T12:32:26;4.60;;;1.70;;
11990;SDS011;6055;52.522;13.446;2022-08-03T12:34:52;1.70;;;1.60;;
11990;SDS011;6055;52.522;13.446;2022-08-03T12:37:19;2.45;;;1.75;;
11990;SDS011;6055;52.522;13.446;2022-08-03T12:39:52;1.98;;;1.80;;
11990;SDS011;6055;52.522;13.446;2022-08-03T12:42:19;2.47;;;2.13;;
11990;SDS011;6055;52.522;13.446;2022-08-03T12:44:45;2.17;;;1.65;;
11990;SDS011;6055;52.522;13.446;2022-08-03T12:47:12;2.42;;;2.22;;
11990;SDS011;6055;52.522;13.446;2022-08-03T12:49:46;2.45;;;2.10;;
11990;SDS011;6055;52.522;13.446;2022-08-03T12:52:13;1.85;;;1.52;;
11990;SDS011;6055;52.522;13.446;2022-08-03T12:54:39;1.70;;;1.60;;
11990;SDS011;6055;52.522;13.446;2022-08-03T12:57:06;1.95;;;1.55;;
11990;SDS011;6055;52.522;13.446;2022-08-03T12:59:34;2.55;;;2.22;;
11990;SDS011;6055;52.522;13.446;2022-08-03T13:02:12;1.70;;;1.60;;
11990;SDS011;6055;52.522;13.446;2022-08-03T13:04:43;1.60;;;1.50;;
11990;SDS011;6055;52.522;13.446;2022-08-03T13:07:10;2.20;;;1.60;;
11990;SDS011;6055;52.522;13.446;2022-08-03T13:09:43;1.70;;;1.60;;
11990;SDS011;6055;52.522;13.446;2022-08-03T13:12:14;1.60;;;1.45;;
11990;SDS011;6055;52.522;13.446;2022-08-03T13:14:45;1.63;;;1.52;;
11990;SDS011;6055;52.522;13.446;2022-08-03T13:17:11;1.77;;;1.50;;
11990;SDS011;6055;52.522;13.446;2022-08-03T13:19:37;2.03;;;1.60;;
11990;SDS011;6055;52.522;13.446;2022-08-03T13:22:14;1.50;;;1.40;;
11990;SDS011;6055;52.522;13.446;2022-08-03T13:24:44;1.80;;;1.63;;
11990;SDS011;6055;52.522;13.446;2022-08-03T13:27:11;3.30;;;1.52;;
11990;SDS011;6055;52.522;13.446;2022-08-03T13:29:37;1.73;;;1.50;;
11990;SDS011;6055;52.522;13.446;2022-08-03T13:32:04;1.70;;;1.60;;
11990;SDS011;6055;52.522;13.446;2022-08-03T13:34:30;2.05;;;1.75;;
11990;SDS011;6055;52.522;13.446;2022-08-03T13:36:56;1.58;;;1.48;;
11990;SDS011;6055;52.522;13.446;2022-08-03T13:39:21;2.35;;;1.67;;
11990;SDS011;6055;52.522;13.446;2022-08-03T13:41:47;1.85;;;1.58;;
11990;SDS011;6055;52.522;13.446;2022-08-03T13:44:13;2.00;;;1.80;;
11990;SDS011;6055;52.522;13.446;2022-08-03T13:46:39;1.30;;;1.20;;
11990;SDS011;6055;52.522;13.446;2022-08-03T13:49:05;2.72;;;1.90;;
11990;SDS011;6055;52.522;13.446;2022-08-03T13:51:31;1.80;;;1.70;;
11990;SDS011;6055;52.522;13.446;2022-08-03T13:53:57;1.92;;;1.50;;
11990;SDS011;6055;52.522;13.446;2022-08-03T13:56:23;1.63;;;1.52;;
11990;SDS011;6055;52.522;13.446;2022-08-03T13:58:52;1.90;;;1.50;;
11990;SDS011;6055;52.522;13.446;2022-08-03T14:01:18;1.50;;;1.35;;
11990;SDS011;6055;52.522;13.446;2022-08-03T14:03:44;1.65;;;1.55;;
11990;SDS011;6055;52.522;13.446;2022-08-03T14:06:12;1.60;;;1.50;;
11990;SDS011;6055;52.522;13.446;2022-08-03T14:08:38;1.60;;;1.50;;
11990;SDS011;6055;52.522;13.446;2022-08-03T14:11:03;1.88;;;1.65;;
11990;SDS011;6055;52.522;13.446;2022-08-03T14:13:29;2.17;;;1.63;;
11990;SDS011;6055;52.522;13.446;2022-08-03T14:15:54;1.38;;;1.27;;
11990;SDS011;6055;52.522;13.446;2022-08-03T14:18:20;3.08;;;1.73;;
11990;SDS011;6055;52.522;13.446;2022-08-03T14:20:46;2.30;;;1.83;;
11990;SDS011;6055;52.522;13.446;2022-08-03T14:23:12;1.38;;;1.27;;
11990;SDS011;6055;52.522;13.446;2022-08-03T14:25:38;1.67;;;1.58;;
11990;SDS011;6055;52.522;13.446;2022-08-03T14:28:05;1.65;;;1.55;;
11990;SDS011;6055;52.522;13.446;2022-08-03T14:30:31;1.98;;;1.70;;
11990;SDS011;6055;52.522;13.446;2022-08-03T14:32:57;1.50;;;1.40;;
11990;SDS011;6055;52.522;13.446;2022-08-03T14:35:23;2.17;;;1.60;;
11990;SDS011;6055;52.522;13.446;2022-08-03T14:37:48;1.60;;;1.50;;
11990;SDS011;6055;52.522;13.446;2022-08-03T14:40:14;1.67;;;1.58;;
11990;SDS011;6055;52.522;13.446;2022-08-03T14:42:39;2.83;;;1.65;;
11990;SDS011;6055;52.522;13.446;2022-08-03T14:45:05;1.98;;;1.77;;
11990;SDS011;6055;52.522;13.446;2022-08-03T14:47:31;1.70;;;1.60;;
11990;SDS011;6055;52.522;13.446;2022-08-03T14:49:57;1.65;;;1.55;;
11990;SDS011;6055;52.522;13.446;2022-08-03T14:52:22;1.85;;;1.67;;
11990;SDS011;6055;52.522;13.446;2022-08-03T14:54:48;3.10;;;1.67;;
11990;SDS011;6055;52.522;13.446;2022-08-03T14:57:13;2.95;;;2.05;;
11990;SDS011;6055;52.522;13.446;2022-08-03T14:59:39;2.13;;;1.90;;
11990;SDS011;6055;52.522;13.446;2022-08-03T15:02:04;1.67;;;1.58;;
11990;SDS011;6055;52.522;13.446;2022-08-03T15:04:30;2.67;;;1.90;;
11990;SDS011;6055;52.522;13.446;2022-08-03T15:06:55;1.75;;;1.58;;
11990;SDS011;6055;52.522;13.446;2022-08-03T15:09:21;1.98;;;1.80;;
11990;SDS011;6055;52.522;13.446;2022-08-03T15:11:46;3.58;;;1.70;;
11990;SDS011;6055;52.522;13.446;2022-08-03T15:14:12;1.60;;;1.50;;
11990;SDS011;6055;52.522;13.446;2022-08-03T15:16:38;1.95;;;1.50;;
11990;SDS011;6055;52.522;13.446;2022-08-03T15:19:03;1.77;;;1.65;;
11990;SDS011;6055;52.522;13.446;2022-08-03T15:21:29;1.90;;;1.80;;
11990;SDS011;6055;52.522;13.446;2022-08-03T15:23:54;2.38;;;2.20;;
11990;SDS011;6055;52.522;13.446;2022-08-03T15:26:20;3.63;;;1.80;;
11990;SDS011;6055;52.522;13.446;2022-08-03T15:28:45;2.80;;;2.03;;